createdAt,value
2017-06-16T00:01:20.390Z,20.60
2017-06-16T00:03:48.673Z,22.00
2017-06-16T00:06:16.949Z,19.83
2017-06-16T00:08:45.374Z,22.80
2017-06-16T00:11:13.650Z,19.73
2017-06-16T00:13:41.980Z,19.70
2017-06-16T00:16:10.253Z,22.40
2017-06-16T00:18:38.573Z,20.00
2017-06-16T00:21:06.936Z,17.07
2017-06-16T00:23:36.026Z,17.40
2017-06-16T00:26:05.111Z,16.90
2017-06-16T00:28:33.487Z,18.60
2017-06-16T00:31:01.857Z,20.17
2017-06-16T00:33:30.138Z,21.47
2017-06-16T00:35:58.414Z,19.17
2017-06-16T00:38:26.797Z,20.03
2017-06-16T00:40:55.177Z,21.20
2017-06-16T00:43:23.558Z,21.27
2017-06-16T00:45:51.937Z,17.63
2017-06-16T00:48:20.322Z,18.70
2017-06-16T00:50:48.620Z,16.80
2017-06-16T00:53:17.679Z,16.90
2017-06-16T00:55:45.986Z,17.47
2017-06-16T00:58:15.061Z,16.00
2017-06-16T01:00:43.441Z,14.17
2017-06-16T01:03:11.823Z,13.47
2017-06-16T01:05:40.197Z,12.90
2017-06-16T01:08:08.501Z,13.33
2017-06-16T01:10:37.555Z,12.07
2017-06-16T01:13:06.044Z,11.57
2017-06-16T01:15:35.085Z,9.93
2017-06-16T01:18:03.476Z,9.70
2017-06-16T01:20:31.759Z,9.63
2017-06-16T01:23:00.030Z,8.80
2017-06-16T01:25:28.306Z,10.60
2017-06-16T01:27:56.696Z,9.60
2017-06-16T01:30:25.068Z,10.63
2017-06-16T01:32:53.340Z,11.40
2017-06-16T01:35:21.634Z,10.57
2017-06-16T01:37:50.000Z,11.27
2017-06-16T01:40:18.272Z,9.67
2017-06-16T01:42:46.560Z,10.77
2017-06-16T01:45:14.841Z,11.20
2017-06-16T01:47:43.204Z,11.10
2017-06-16T01:50:11.489Z,11.30
2017-06-16T01:52:39.865Z,10.40
2017-06-16T01:55:08.253Z,10.87
2017-06-16T01:57:36.529Z,11.30
2017-06-16T02:00:04.902Z,11.37
2017-06-16T02:02:33.181Z,12.53
2017-06-16T02:05:04.319Z,10.63
2017-06-16T02:07:32.581Z,10.23
2017-06-16T02:10:00.851Z,10.33
2017-06-16T02:12:29.148Z,9.73
2017-06-16T02:14:57.411Z,9.20
2017-06-16T02:17:25.802Z,9.37
2017-06-16T02:19:54.068Z,9.27
2017-06-16T02:22:22.458Z,9.07
2017-06-16T02:24:50.845Z,9.23
2017-06-16T02:27:19.104Z,11.73
2017-06-16T02:29:47.510Z,12.30
2017-06-16T02:32:15.784Z,14.73
2017-06-16T02:34:44.113Z,15.40
2017-06-16T02:37:12.381Z,16.00
2017-06-16T02:39:40.707Z,16.90
2017-06-16T02:42:08.990Z,16.10
2017-06-16T02:44:37.360Z,18.50
2017-06-16T02:47:05.627Z,18.07
2017-06-16T02:49:34.017Z,19.40
2017-06-16T02:52:02.295Z,19.50
2017-06-16T02:54:30.561Z,19.43
2017-06-16T02:56:58.851Z,19.13
2017-06-16T02:59:27.126Z,20.53
2017-06-16T03:01:55.434Z,20.60
2017-06-16T03:04:24.475Z,20.60
2017-06-16T03:06:52.780Z,19.70
2017-06-16T03:09:25.039Z,20.53
2017-06-16T03:11:53.329Z,20.47
2017-06-16T03:14:21.612Z,20.03
2017-06-16T03:16:49.910Z,21.50
2017-06-16T03:19:19.073Z,19.83
2017-06-16T03:21:51.353Z,22.33
2017-06-16T03:24:25.487Z,21.13
2017-06-16T03:26:54.533Z,23.80
2017-06-16T03:29:22.808Z,24.37
2017-06-16T03:31:51.118Z,22.30
2017-06-16T03:34:19.383Z,25.90
2017-06-16T03:36:47.716Z,26.43
2017-06-16T03:39:16.082Z,22.73
2017-06-16T03:41:45.140Z,26.53
2017-06-16T03:44:13.432Z,27.27
2017-06-16T03:46:41.796Z,28.20
2017-06-16T03:49:10.102Z,27.50
2017-06-16T03:51:39.173Z,28.53
2017-06-16T03:54:07.463Z,27.87
2017-06-16T03:56:35.805Z,27.17
2017-06-16T03:59:04.203Z,27.77
2017-06-16T04:01:32.591Z,29.30
2017-06-16T04:04:00.877Z,29.03
2017-06-16T04:06:29.241Z,26.87
2017-06-16T04:08:57.620Z,25.70
2017-06-16T04:11:26.006Z,26.30
2017-06-16T04:13:54.306Z,29.53
2017-06-16T04:16:23.340Z,26.70
2017-06-16T04:18:51.632Z,31.60
2017-06-16T04:21:19.945Z,30.17
2017-06-16T04:23:49.014Z,28.13
2017-06-16T04:26:17.310Z,28.23
2017-06-16T04:28:45.676Z,27.87
2017-06-16T04:31:13.949Z,26.60
2017-06-16T04:33:42.234Z,23.30
2017-06-16T04:36:10.512Z,26.30
2017-06-16T04:38:38.834Z,26.93
2017-06-16T04:41:07.160Z,32.43
2017-06-16T04:43:35.553Z,27.13
2017-06-16T04:46:03.933Z,28.20
2017-06-16T04:48:32.316Z,30.00
2017-06-16T04:51:01.393Z,29.93
2017-06-16T04:53:29.671Z,32.10
2017-06-16T04:55:57.960Z,28.60
2017-06-16T04:58:26.254Z,28.83
2017-06-16T05:00:54.644Z,32.03
2017-06-16T05:03:22.928Z,31.07
2017-06-16T05:05:52.025Z,28.90
2017-06-16T05:08:20.385Z,25.63
2017-06-16T05:10:48.768Z,24.57
2017-06-16T05:13:17.052Z,22.47
2017-06-16T05:15:45.339Z,22.40
2017-06-16T05:18:14.435Z,24.83
2017-06-16T05:20:42.688Z,24.53
2017-06-16T05:23:16.804Z,25.63
2017-06-16T05:25:45.090Z,21.93
2017-06-16T05:28:13.469Z,20.80
2017-06-16T05:30:41.849Z,18.80
2017-06-16T05:33:10.127Z,18.73
2017-06-16T05:35:38.439Z,18.77
2017-06-16T05:38:06.713Z,19.33
2017-06-16T05:40:35.032Z,17.17
2017-06-16T05:43:03.301Z,17.97
2017-06-16T05:45:31.608Z,17.40
2017-06-16T05:47:59.892Z,16.10
2017-06-16T05:50:28.172Z,15.50
2017-06-16T05:52:58.153Z,17.40
2017-06-16T05:55:26.478Z,15.80
2017-06-16T05:57:54.775Z,15.20
2017-06-16T06:00:23.062Z,15.47
2017-06-16T06:02:51.456Z,14.60
2017-06-16T06:05:19.776Z,15.80
2017-06-16T06:07:48.101Z,14.47
2017-06-16T06:10:16.477Z,14.97
2017-06-16T06:12:44.853Z,13.20
2017-06-16T06:15:13.234Z,14.10
2017-06-16T06:17:41.560Z,15.23
2017-06-16T06:20:09.824Z,15.00
2017-06-16T06:22:38.185Z,15.30
2017-06-16T06:25:07.286Z,14.70
2017-06-16T06:27:36.408Z,14.63
2017-06-16T06:30:04.736Z,15.67
2017-06-16T06:32:33.109Z,17.70
2017-06-16T06:35:01.380Z,15.77
2017-06-16T06:37:29.656Z,16.63
2017-06-16T06:39:57.951Z,15.30
2017-06-16T06:42:26.222Z,16.73
2017-06-16T06:44:54.605Z,17.20
2017-06-16T06:47:22.885Z,17.40
2017-06-16T06:49:51.184Z,15.43
2017-06-16T06:52:19.464Z,15.77
2017-06-16T06:54:48.528Z,16.93
2017-06-16T06:57:16.831Z,17.53
2017-06-16T06:59:45.184Z,16.07
2017-06-16T07:02:13.564Z,18.60
2017-06-16T07:04:41.848Z,17.43
2017-06-16T07:07:10.133Z,23.30
2017-06-16T07:09:38.403Z,24.70
2017-06-16T07:12:06.691Z,14.90
2017-06-16T07:14:34.964Z,14.47
2017-06-16T07:17:03.343Z,11.43
2017-06-16T07:19:31.609Z,11.50
2017-06-16T07:21:59.865Z,11.17
2017-06-16T07:24:28.169Z,16.60
2017-06-16T07:26:56.424Z,9.00
2017-06-16T07:29:24.948Z,9.93
2017-06-16T07:31:54.023Z,10.33
2017-06-16T07:34:22.405Z,12.13
2017-06-16T07:36:50.771Z,13.33
2017-06-16T07:39:19.050Z,9.57
2017-06-16T07:41:47.344Z,13.53
2017-06-16T07:44:15.623Z,11.40
2017-06-16T07:46:43.998Z,11.30
2017-06-16T07:49:12.281Z,17.77
2017-06-16T07:51:40.652Z,12.73
2017-06-16T07:54:09.040Z,15.33
2017-06-16T07:56:38.112Z,13.80
2017-06-16T07:59:06.506Z,21.40
2017-06-16T08:01:34.843Z,19.90
2017-06-16T08:04:03.160Z,18.33
2017-06-16T08:06:32.116Z,16.33
2017-06-16T08:09:00.396Z,16.90
2017-06-16T08:11:28.693Z,14.77
2017-06-16T08:13:56.980Z,12.97
2017-06-16T08:16:25.455Z,16.40
2017-06-16T08:18:53.741Z,12.93
2017-06-16T08:21:22.108Z,14.40
2017-06-16T08:23:50.410Z,13.13
2017-06-16T08:26:19.457Z,15.60
2017-06-16T08:28:47.773Z,16.43
2017-06-16T08:31:16.057Z,14.20
2017-06-16T08:33:45.133Z,17.07
2017-06-16T08:36:13.507Z,11.60
2017-06-16T08:38:41.806Z,12.97
2017-06-16T08:41:10.168Z,11.53
2017-06-16T08:43:38.531Z,12.93
2017-06-16T08:46:06.836Z,11.67
2017-06-16T08:48:35.220Z,14.10
2017-06-16T08:51:03.597Z,12.20
2017-06-16T08:53:31.964Z,14.93
2017-06-16T08:56:00.257Z,8.93
2017-06-16T08:58:28.620Z,12.80
2017-06-16T09:00:56.897Z,10.33
2017-06-16T09:03:25.209Z,12.23
2017-06-16T09:05:54.239Z,9.40
2017-06-16T09:08:22.504Z,9.77
2017-06-16T09:10:50.792Z,8.93
2017-06-16T09:13:19.049Z,9.50
2017-06-16T09:15:47.376Z,9.83
2017-06-16T09:18:15.657Z,11.20
2017-06-16T09:20:44.037Z,12.03
2017-06-16T09:23:12.309Z,10.33
2017-06-16T09:25:40.588Z,7.23
2017-06-16T09:28:08.867Z,6.93
2017-06-16T09:30:37.137Z,8.30
2017-06-16T09:33:05.521Z,12.47
2017-06-16T09:35:33.905Z,9.67
2017-06-16T09:38:02.148Z,8.67
2017-06-16T09:40:30.456Z,9.13
2017-06-16T09:42:58.728Z,12.13
2017-06-16T09:45:27.022Z,7.13
2017-06-16T09:47:55.405Z,7.10
2017-06-16T09:50:23.664Z,6.23
2017-06-16T09:52:52.052Z,6.97
2017-06-16T09:55:20.348Z,8.47
2017-06-16T09:57:48.696Z,6.83
2017-06-16T10:00:17.088Z,8.90
2017-06-16T10:02:45.345Z,7.47
2017-06-16T10:05:13.767Z,5.30
2017-06-16T10:07:42.858Z,5.70
2017-06-16T10:10:12.044Z,5.80
2017-06-16T10:12:40.318Z,7.60
2017-06-16T10:15:08.577Z,7.20
2017-06-16T10:17:37.062Z,7.03
2017-06-16T10:20:05.320Z,6.90
2017-06-16T10:22:33.729Z,5.70
2017-06-16T10:25:02.096Z,9.00
2017-06-16T10:27:30.368Z,7.63
2017-06-16T10:29:58.783Z,5.00
2017-06-16T10:32:27.043Z,6.33
2017-06-16T10:34:55.422Z,5.90
2017-06-16T10:37:23.705Z,6.03
2017-06-16T10:39:51.967Z,5.13
2017-06-16T10:42:20.340Z,5.70
2017-06-16T10:44:48.616Z,6.23
2017-06-16T10:47:17.004Z,6.87
2017-06-16T10:49:45.274Z,4.90
2017-06-16T10:52:13.679Z,7.60
2017-06-16T10:54:42.732Z,5.87
2017-06-16T10:57:11.026Z,3.50
2017-06-16T10:59:39.405Z,6.20
2017-06-16T11:02:07.656Z,5.43
2017-06-16T11:04:35.948Z,3.40
2017-06-16T11:07:04.230Z,5.67
2017-06-16T11:09:32.530Z,3.53
2017-06-16T11:12:00.910Z,5.20
2017-06-16T11:14:29.165Z,4.87
2017-06-16T11:16:57.537Z,3.63
2017-06-16T11:19:25.811Z,4.20
2017-06-16T11:21:54.077Z,4.30
2017-06-16T11:24:22.373Z,3.13
2017-06-16T11:26:50.632Z,3.50
2017-06-16T11:29:19.039Z,3.73
2017-06-16T11:31:47.424Z,4.23
2017-06-16T11:34:15.694Z,2.50
2017-06-16T11:36:43.975Z,3.33
2017-06-16T11:39:12.241Z,3.80
2017-06-16T11:41:40.539Z,3.33
2017-06-16T11:44:08.802Z,4.70
2017-06-16T11:46:37.196Z,9.60
2017-06-16T11:49:06.060Z,6.83
2017-06-16T11:51:34.344Z,8.20
2017-06-16T11:54:02.646Z,4.13
2017-06-16T11:56:30.867Z,4.07
2017-06-16T11:58:59.203Z,6.20
2017-06-16T12:01:27.479Z,5.80
2017-06-16T12:03:55.768Z,3.63
2017-06-16T12:06:24.833Z,3.30
2017-06-16T12:08:53.212Z,3.17
2017-06-16T12:11:21.480Z,4.00
2017-06-16T12:13:49.743Z,2.37
2017-06-16T12:16:18.062Z,2.37
2017-06-16T12:18:46.317Z,3.73
2017-06-16T12:21:14.715Z,3.10
2017-06-16T12:23:42.997Z,2.00
2017-06-16T12:26:11.265Z,2.50
2017-06-16T12:28:39.548Z,3.50
2017-06-16T12:31:07.809Z,4.23
2017-06-16T12:33:36.116Z,2.87
2017-06-16T12:36:05.146Z,5.73
2017-06-16T12:38:33.452Z,4.57
2017-06-16T12:41:01.753Z,2.67
2017-06-16T12:43:30.112Z,1.70
2017-06-16T12:45:58.386Z,4.70
2017-06-16T12:48:26.783Z,3.30
2017-06-16T12:50:55.046Z,21.70
2017-06-16T12:53:23.425Z,2.00
2017-06-16T12:55:51.681Z,2.50
2017-06-16T12:58:19.994Z,1.90
2017-06-16T13:00:48.252Z,2.00
2017-06-16T13:03:16.641Z,5.13
2017-06-16T13:05:44.906Z,2.93
2017-06-16T13:08:13.272Z,2.50
2017-06-16T13:10:41.533Z,2.40
2017-06-16T13:13:09.850Z,2.40
2017-06-16T13:15:38.875Z,2.00
2017-06-16T13:18:07.944Z,2.40
2017-06-16T13:20:36.205Z,2.57
2017-06-16T13:23:04.516Z,2.33
2017-06-16T13:25:32.888Z,3.10
2017-06-16T13:28:01.163Z,2.60
2017-06-16T13:30:29.456Z,3.17
2017-06-16T13:32:57.806Z,3.53
2017-06-16T13:35:26.174Z,3.23
2017-06-16T13:37:54.459Z,3.03
2017-06-16T13:40:22.740Z,3.20
2017-06-16T13:42:51.017Z,3.27
2017-06-16T13:45:19.315Z,3.73
2017-06-16T13:47:48.390Z,3.50
2017-06-16T13:50:16.658Z,2.60
2017-06-16T13:52:44.953Z,2.87
2017-06-16T13:55:13.944Z,3.37
2017-06-16T13:57:42.233Z,5.70
2017-06-16T14:00:10.585Z,3.10
2017-06-16T14:02:38.869Z,4.40
2017-06-16T14:05:07.243Z,3.63
2017-06-16T14:07:35.530Z,3.80
2017-06-16T14:10:03.900Z,3.43
2017-06-16T14:12:32.177Z,4.03
2017-06-16T14:15:00.457Z,2.90
2017-06-16T14:17:28.846Z,6.00
2017-06-16T14:19:57.212Z,4.83
2017-06-16T14:22:25.606Z,3.87
2017-06-16T14:24:53.877Z,4.63
2017-06-16T14:27:22.168Z,3.40
2017-06-16T14:29:50.532Z,4.27
2017-06-16T14:32:19.364Z,2.83
2017-06-16T14:34:47.725Z,2.70
2017-06-16T14:37:16.082Z,2.77
2017-06-16T14:39:44.452Z,2.10
2017-06-16T14:42:12.746Z,3.73
2017-06-16T14:44:41.119Z,2.33
2017-06-16T14:47:09.385Z,2.87
2017-06-16T14:49:37.865Z,2.63
2017-06-16T14:52:06.144Z,2.53
2017-06-16T14:54:34.399Z,2.43
2017-06-16T14:57:02.676Z,3.83
2017-06-16T14:59:31.077Z,5.37
2017-06-16T15:01:59.428Z,5.50
2017-06-16T15:04:27.710Z,2.50
2017-06-16T15:06:55.981Z,4.20
2017-06-16T15:09:24.288Z,3.07
2017-06-16T15:11:52.677Z,4.17
2017-06-16T15:14:21.053Z,3.77
2017-06-16T15:16:49.318Z,5.37
2017-06-16T15:19:17.603Z,4.13
2017-06-16T15:21:45.882Z,5.03
2017-06-16T15:24:14.213Z,4.03
2017-06-16T15:26:42.469Z,3.40
2017-06-16T15:29:11.536Z,4.90
2017-06-16T15:31:39.927Z,6.30
2017-06-16T15:34:08.302Z,5.60
2017-06-16T15:36:36.557Z,4.43
2017-06-16T15:39:04.937Z,5.00
2017-06-16T15:41:33.188Z,5.60
2017-06-16T15:44:01.492Z,3.40
2017-06-16T15:46:29.748Z,3.90
2017-06-16T15:48:58.032Z,3.90
2017-06-16T15:51:26.366Z,3.30
2017-06-16T15:53:55.412Z,3.50
2017-06-16T15:56:23.707Z,5.77
2017-06-16T15:58:52.092Z,2.30
2017-06-16T16:01:20.382Z,3.67
2017-06-16T16:03:48.728Z,2.13
2017-06-16T16:06:17.107Z,3.43
2017-06-16T16:08:45.386Z,2.27
2017-06-16T16:11:13.786Z,3.03
2017-06-16T16:13:42.252Z,6.00
2017-06-16T16:16:10.556Z,4.50
2017-06-16T16:18:38.994Z,3.83
2017-06-16T16:21:07.385Z,4.00
2017-06-16T16:23:35.702Z,4.33
2017-06-16T16:26:04.930Z,5.47
2017-06-16T16:28:33.251Z,3.90
2017-06-16T16:31:01.625Z,5.73
2017-06-16T16:33:29.954Z,4.00
2017-06-16T16:35:58.286Z,3.43
2017-06-16T16:38:26.586Z,4.07
2017-06-16T16:40:54.933Z,3.80
2017-06-16T16:43:23.291Z,2.73
2017-06-16T16:45:51.592Z,5.40
2017-06-16T16:48:19.885Z,4.20
2017-06-16T16:50:48.184Z,4.33
2017-06-16T16:53:17.208Z,3.83
2017-06-16T16:55:45.626Z,6.77
2017-06-16T16:58:14.864Z,3.13
2017-06-16T17:00:43.128Z,3.00
2017-06-16T17:03:12.188Z,3.70
2017-06-16T17:05:40.466Z,3.50
2017-06-16T17:08:08.844Z,8.80
2017-06-16T17:10:37.092Z,4.97
2017-06-16T17:13:05.368Z,3.97
2017-06-16T17:15:33.643Z,5.93
2017-06-16T17:18:02.054Z,4.97
2017-06-16T17:20:30.330Z,5.70
2017-06-16T17:22:58.722Z,4.80
2017-06-16T17:25:27.103Z,5.73
2017-06-16T17:27:56.231Z,6.37
2017-06-16T17:30:24.593Z,10.10
2017-06-16T17:32:52.957Z,6.57
2017-06-16T17:35:21.340Z,9.50
2017-06-16T17:37:49.708Z,4.63
2017-06-16T17:40:17.987Z,2.33
2017-06-16T17:42:46.289Z,5.77
2017-06-16T17:45:15.329Z,5.97
2017-06-16T17:47:43.644Z,4.80
2017-06-16T17:50:11.929Z,5.27
2017-06-16T17:52:41.004Z,6.27
2017-06-16T17:55:09.281Z,5.70
2017-06-16T17:57:37.572Z,4.73
2017-06-16T18:00:05.860Z,6.33
2017-06-16T18:02:34.888Z,8.40
2017-06-16T18:05:03.244Z,6.27
2017-06-16T18:07:32.304Z,6.20
2017-06-16T18:10:00.698Z,4.83
2017-06-16T18:12:28.969Z,5.77
2017-06-16T18:14:57.340Z,7.13
2017-06-16T18:17:25.718Z,3.93
2017-06-16T18:19:53.985Z,5.10
2017-06-16T18:22:22.387Z,7.13
2017-06-16T18:24:50.654Z,6.23
2017-06-16T18:27:19.052Z,4.50
2017-06-16T18:29:48.138Z,8.80
2017-06-16T18:32:16.401Z,3.00
2017-06-16T18:34:44.786Z,5.20
2017-06-16T18:37:13.163Z,6.67
2017-06-16T18:39:41.541Z,5.57
2017-06-16T18:42:09.801Z,4.60
2017-06-16T18:44:38.097Z,5.50
2017-06-16T18:47:06.371Z,5.87
2017-06-16T18:49:34.668Z,8.57
2017-06-16T18:52:02.943Z,4.80
2017-06-16T18:54:31.296Z,3.70
2017-06-16T18:56:59.588Z,6.83
2017-06-16T18:59:27.861Z,6.13
2017-06-16T19:01:56.261Z,3.83
2017-06-16T19:04:24.626Z,6.23
2017-06-16T19:06:53.007Z,11.80
2017-06-16T19:09:21.301Z,7.30
2017-06-16T19:11:49.656Z,3.80
2017-06-16T19:14:18.040Z,5.97
2017-06-16T19:16:46.320Z,6.33
2017-06-16T19:19:14.688Z,7.53
2017-06-16T19:21:43.070Z,3.87
2017-06-16T19:24:11.328Z,5.53
2017-06-16T19:26:39.646Z,5.27
2017-06-16T19:29:08.694Z,5.67
2017-06-16T19:31:36.961Z,5.00
2017-06-16T19:34:05.241Z,4.80
2017-06-16T19:36:33.544Z,8.00
2017-06-16T19:39:01.844Z,4.73
2017-06-16T19:41:30.200Z,7.60
2017-06-16T19:43:58.508Z,6.17
2017-06-16T19:46:26.774Z,7.30
2017-06-16T19:48:55.136Z,5.80
2017-06-16T19:51:23.431Z,7.50
2017-06-16T19:53:51.793Z,4.53
2017-06-16T19:56:20.057Z,5.80
2017-06-16T19:58:48.348Z,2.57
2017-06-16T20:01:16.614Z,8.60
2017-06-16T20:03:45.014Z,3.60
2017-06-16T20:06:13.393Z,5.13
2017-06-16T20:08:41.660Z,3.90
2017-06-16T20:11:10.040Z,6.17
2017-06-16T20:13:38.310Z,5.20
2017-06-16T20:16:06.668Z,7.03
2017-06-16T20:18:34.943Z,5.23
2017-06-16T20:21:03.212Z,9.07
2017-06-16T20:23:31.535Z,5.33
2017-06-16T20:25:59.920Z,11.10
2017-06-16T20:28:28.312Z,11.20
2017-06-16T20:30:57.347Z,8.17
2017-06-16T20:33:25.651Z,6.87
2017-06-16T20:35:54.046Z,8.20
2017-06-16T20:38:22.304Z,6.27
2017-06-16T20:40:50.696Z,6.07
2017-06-16T20:43:18.982Z,8.80
2017-06-16T20:45:47.344Z,8.40
2017-06-16T20:48:15.727Z,8.40
2017-06-16T20:50:43.997Z,7.70
2017-06-16T20:53:12.381Z,7.03
2017-06-16T20:55:40.664Z,4.47
2017-06-16T20:58:08.924Z,6.40
2017-06-16T21:00:37.314Z,7.90
2017-06-16T21:03:05.572Z,7.80
2017-06-16T21:05:33.889Z,8.70
2017-06-16T21:08:02.283Z,9.90
2017-06-16T21:10:31.314Z,6.00
2017-06-16T21:12:59.630Z,8.77
2017-06-16T21:15:27.884Z,7.00
2017-06-16T21:17:56.202Z,7.43
2017-06-16T21:20:24.463Z,9.47
2017-06-16T21:22:52.725Z,11.27
2017-06-16T21:25:21.009Z,7.40
2017-06-16T21:27:49.284Z,8.50
2017-06-16T21:30:17.668Z,10.47
2017-06-16T21:32:46.674Z,10.80
2017-06-16T21:35:15.047Z,7.50
2017-06-16T21:37:43.332Z,11.23
2017-06-16T21:40:12.411Z,7.93
2017-06-16T21:42:40.725Z,12.63
2017-06-16T21:45:08.991Z,15.03
2017-06-16T21:47:38.029Z,8.90
2017-06-16T21:50:06.331Z,6.30
2017-06-16T21:52:34.598Z,9.20
2017-06-16T21:55:03.001Z,8.93
2017-06-16T21:57:31.258Z,13.57
2017-06-16T21:59:59.534Z,11.80
2017-06-16T22:02:27.841Z,8.60
2017-06-16T22:04:56.204Z,11.60
2017-06-16T22:07:24.489Z,9.27
2017-06-16T22:09:52.856Z,9.37
2017-06-16T22:12:21.402Z,11.47
2017-06-16T22:14:49.660Z,13.43
2017-06-16T22:17:18.028Z,11.17
2017-06-16T22:19:46.308Z,7.20
2017-06-16T22:22:15.367Z,9.63
2017-06-16T22:24:43.667Z,8.83
2017-06-16T22:27:12.034Z,12.47
2017-06-16T22:29:40.400Z,10.80
2017-06-16T22:32:08.832Z,15.10
2017-06-16T22:34:37.170Z,9.97
2017-06-16T22:37:05.572Z,7.03
2017-06-16T22:39:33.876Z,8.00
2017-06-16T22:42:02.181Z,12.30
2017-06-16T22:44:30.522Z,10.73
2017-06-16T22:46:59.565Z,14.40
2017-06-16T22:49:27.864Z,10.87
2017-06-16T22:51:56.912Z,11.93
2017-06-16T22:54:25.201Z,11.97
2017-06-16T22:56:53.583Z,11.47
2017-06-16T22:59:22.632Z,14.80
2017-06-16T23:01:52.663Z,12.60
2017-06-16T23:04:20.982Z,14.00
2017-06-16T23:06:49.314Z,9.77
2017-06-16T23:09:17.776Z,12.13
2017-06-16T23:11:46.121Z,11.23
2017-06-16T23:14:15.364Z,8.20
2017-06-16T23:16:43.640Z,8.50
2017-06-16T23:19:11.913Z,9.60
2017-06-16T23:21:40.212Z,10.50
2017-06-16T23:24:08.474Z,10.53
2017-06-16T23:26:36.879Z,8.57
2017-06-16T23:29:05.252Z,13.80
2017-06-16T23:31:33.539Z,12.60
2017-06-16T23:34:01.900Z,8.77
2017-06-16T23:36:30.161Z,12.13
2017-06-16T23:38:58.569Z,12.53
2017-06-16T23:41:26.829Z,16.10
2017-06-16T23:43:55.124Z,11.53
2017-06-16T23:46:23.489Z,14.67
2017-06-16T23:48:51.768Z,8.60
2017-06-16T23:51:20.154Z,9.83
2017-06-16T23:53:48.426Z,8.80
2017-06-16T23:56:16.706Z,8.97
2017-06-16T23:58:45.091Z,10.67
